sensor_id;sensor_type;location;lat;lon;timestamp;pressure;altitude;pressure_sealevel;temperature;humidity
71764;BME280;59602;52.142;5.408;2022-12-18T00:00:04;103012.66;;;-1.90;84.37
71764;BME280;59602;52.142;5.408;2022-12-18T00:02:32;103007.06;;;-1.88;84.75
71764;BME280;59602;52.142;5.408;2022-12-18T00:04:59;102998.75;;;-1.92;84.28
71764;BME280;59602;52.142;5.408;2022-12-18T00:07:25;103001.41;;;-1.92;84.47
71764;BME280;59602;52.142;5.408;2022-12-18T00:09:53;102988.09;;;-1.92;84.80
71764;BME280;59602;52.142;5.408;2022-12-18T00:12:22;102980.31;;;-1.93;84.60
71764;BME280;59602;52.142;5.408;2022-12-18T00:14:48;102985.88;;;-1.95;84.74
71764;BME280;59602;52.142;5.408;2022-12-18T00:17:15;102989.13;;;-1.93;84.69
71764;BME280;59602;52.142;5.408;2022-12-18T00:19:42;102985.44;;;-1.92;84.49
71764;BME280;59602;52.142;5.408;2022-12-18T00:22:08;102981.84;;;-1.97;84.45
71764;BME280;59602;52.142;5.408;2022-12-18T00:24:35;102996.47;;;-2.00;84.72
71764;BME280;59602;52.142;5.408;2022-12-18T00:27:01;102995.41;;;-1.99;84.43
71764;BME280;59602;52.142;5.408;2022-12-18T00:29:28;103000.75;;;-1.99;84.40
71764;BME280;59602;52.142;5.408;2022-12-18T00:31:55;102998.91;;;-1.98;84.73
71764;BME280;59602;52.142;5.408;2022-12-18T00:34:22;102997.19;;;-2.04;84.13
71764;BME280;59602;52.142;5.408;2022-12-18T00:36:49;102980.06;;;-2.09;83.99
71764;BME280;59602;52.142;5.408;2022-12-18T00:39:15;102986.19;;;-2.08;84.47
71764;BME280;59602;52.142;5.408;2022-12-18T00:41:42;102985.97;;;-2.06;84.20
71764;BME280;59602;52.142;5.408;2022-12-18T00:44:27;102981.69;;;-2.07;84.29
71764;BME280;59602;52.142;5.408;2022-12-18T00:46:54;102984.59;;;-2.09;84.16
71764;BME280;59602;52.142;5.408;2022-12-18T00:49:21;102974.97;;;-2.10;84.26
71764;BME280;59602;52.142;5.408;2022-12-18T00:51:48;102977.31;;;-2.14;84.00
71764;BME280;59602;52.142;5.408;2022-12-18T00:54:15;102987.41;;;-2.16;84.35
71764;BME280;59602;52.142;5.408;2022-12-18T00:56:44;102984.41;;;-2.19;84.19
71764;BME280;59602;52.142;5.408;2022-12-18T00:59:16;102979.06;;;-2.19;84.45
71764;BME280;59602;52.142;5.408;2022-12-18T01:01:42;102976.19;;;-2.18;84.72
71764;BME280;59602;52.142;5.408;2022-12-18T01:04:09;102980.72;;;-2.18;84.51
71764;BME280;59602;52.142;5.408;2022-12-18T01:06:36;102973.16;;;-2.21;84.54
71764;BME280;59602;52.142;5.408;2022-12-18T01:09:03;102968.91;;;-2.22;84.57
71764;BME280;59602;52.142;5.408;2022-12-18T01:11:30;102975.84;;;-2.21;84.25
71764;BME280;59602;52.142;5.408;2022-12-18T01:13:57;102970.19;;;-2.25;84.53
71764;BME280;59602;52.142;5.408;2022-12-18T01:16:29;102974.72;;;-2.25;84.13
71764;BME280;59602;52.142;5.408;2022-12-18T01:18:56;102975.25;;;-2.23;84.20
71764;BME280;59602;52.142;5.408;2022-12-18T01:21:23;102982.44;;;-2.24;84.13
71764;BME280;59602;52.142;5.408;2022-12-18T01:23:51;102980.13;;;-2.20;84.41
71764;BME280;59602;52.142;5.408;2022-12-18T01:26:19;102981.66;;;-2.24;84.17
71764;BME280;59602;52.142;5.408;2022-12-18T01:28:47;102993.13;;;-2.24;84.35
71764;BME280;59602;52.142;5.408;2022-12-18T01:31:30;102993.13;;;-2.24;84.45
71764;BME280;59602;52.142;5.408;2022-12-18T01:34:00;102993.13;;;-2.24;84.17
71764;BME280;59602;52.142;5.408;2022-12-18T01:36:30;102997.63;;;-2.24;83.98
71764;BME280;59602;52.142;5.408;2022-12-18T01:38:59;102991.75;;;-2.26;84.37
71764;BME280;59602;52.142;5.408;2022-12-18T01:41:27;102999.38;;;-2.30;83.89
71764;BME280;59602;52.142;5.408;2022-12-18T01:50:03;103010.19;;;-2.37;84.13
71764;BME280;59602;52.142;5.408;2022-12-18T01:52:32;103004.84;;;-2.37;84.12
71764;BME280;59602;52.142;5.408;2022-12-18T01:55:00;103001.53;;;-2.44;84.23
71764;BME280;59602;52.142;5.408;2022-12-18T01:57:28;103000.72;;;-2.44;84.33
71764;BME280;59602;52.142;5.408;2022-12-18T01:59:59;102998.28;;;-2.46;84.38
71764;BME280;59602;52.142;5.408;2022-12-18T02:02:27;102996.13;;;-2.49;84.29
71764;BME280;59602;52.142;5.408;2022-12-18T02:04:55;103005.41;;;-2.52;84.04
71764;BME280;59602;52.142;5.408;2022-12-18T02:07:39;103006.41;;;-2.53;84.14
71764;BME280;59602;52.142;5.408;2022-12-18T02:10:26;103009.78;;;-2.57;83.57
71764;BME280;59602;52.142;5.408;2022-12-18T02:13:02;103007.03;;;-2.62;83.78
71764;BME280;59602;52.142;5.408;2022-12-18T02:18:19;103000.69;;;-2.73;83.25
71764;BME280;59602;52.142;5.408;2022-12-18T02:28:36;103010.00;;;-2.87;83.01
71764;BME280;59602;52.142;5.408;2022-12-18T02:31:09;103014.75;;;-2.89;82.99
71764;BME280;59602;52.142;5.408;2022-12-18T02:33:39;103013.38;;;-2.92;83.01
71764;BME280;59602;52.142;5.408;2022-12-18T02:36:08;103005.50;;;-2.99;83.01
71764;BME280;59602;52.142;5.408;2022-12-18T02:38:37;103004.34;;;-3.03;82.88
71764;BME280;59602;52.142;5.408;2022-12-18T02:41:05;103003.53;;;-3.03;82.75
71764;BME280;59602;52.142;5.408;2022-12-18T02:43:32;103000.53;;;-3.07;82.66
71764;BME280;59602;52.142;5.408;2022-12-18T02:46:00;102999.16;;;-3.09;82.69
71764;BME280;59602;52.142;5.408;2022-12-18T02:48:32;102983.66;;;-3.13;82.60
71764;BME280;59602;52.142;5.408;2022-12-18T02:51:11;102981.44;;;-3.16;82.63
71764;BME280;59602;52.142;5.408;2022-12-18T02:53:50;102981.94;;;-3.19;82.90
71764;BME280;59602;52.142;5.408;2022-12-18T02:56:23;102989.91;;;-3.19;82.45
71764;BME280;59602;52.142;5.408;2022-12-18T02:59:00;102980.53;;;-3.21;82.29
71764;BME280;59602;52.142;5.408;2022-12-18T03:01:58;102987.94;;;-3.23;82.10
71764;BME280;59602;52.142;5.408;2022-12-18T03:04:35;102976.16;;;-3.27;82.28
71764;BME280;59602;52.142;5.408;2022-12-18T03:07:09;102975.78;;;-3.31;82.35
71764;BME280;59602;52.142;5.408;2022-12-18T03:09:41;102971.75;;;-3.34;82.26
71764;BME280;59602;52.142;5.408;2022-12-18T03:14:54;102961.44;;;-3.42;82.27
71764;BME280;59602;52.142;5.408;2022-12-18T03:17:25;102969.91;;;-3.45;81.47
71764;BME280;59602;52.142;5.408;2022-12-18T03:19:54;102969.31;;;-3.47;81.99
71764;BME280;59602;52.142;5.408;2022-12-18T03:22:24;102966.34;;;-3.50;81.88
71764;BME280;59602;52.142;5.408;2022-12-18T03:24:56;102957.78;;;-3.52;81.61
71764;BME280;59602;52.142;5.408;2022-12-18T03:27:25;102953.50;;;-3.53;81.61
71764;BME280;59602;52.142;5.408;2022-12-18T03:30:03;102950.50;;;-3.57;81.96
71764;BME280;59602;52.142;5.408;2022-12-18T03:32:39;102952.00;;;-3.61;81.92
71764;BME280;59602;52.142;5.408;2022-12-18T03:35:10;102954.41;;;-3.60;82.16
71764;BME280;59602;52.142;5.408;2022-12-18T03:37:38;102949.66;;;-3.58;81.80
71764;BME280;59602;52.142;5.408;2022-12-18T03:40:05;102941.13;;;-3.60;81.83
71764;BME280;59602;52.142;5.408;2022-12-18T03:42:51;102938.72;;;-3.61;82.04
71764;BME280;59602;52.142;5.408;2022-12-18T03:45:37;102938.22;;;-3.58;82.22
71764;BME280;59602;52.142;5.408;2022-12-18T03:48:15;102935.56;;;-3.58;82.12
71764;BME280;59602;52.142;5.408;2022-12-18T03:50:48;102932.91;;;-3.58;81.66
71764;BME280;59602;52.142;5.408;2022-12-18T03:53:24;102934.41;;;-3.62;81.95
71764;BME280;59602;52.142;5.408;2022-12-18T03:55:53;102934.31;;;-3.67;81.80
71764;BME280;59602;52.142;5.408;2022-12-18T03:58:23;102935.59;;;-3.70;81.70
71764;BME280;59602;52.142;5.408;2022-12-18T04:00:53;102930.47;;;-3.71;81.48
71764;BME280;59602;52.142;5.408;2022-12-18T04:03:23;102929.91;;;-3.73;81.38
71764;BME280;59602;52.142;5.408;2022-12-18T04:05:52;102926.44;;;-3.74;81.53
71764;BME280;59602;52.142;5.408;2022-12-18T04:08:21;102924.00;;;-3.76;81.65
71764;BME280;59602;52.142;5.408;2022-12-18T04:10:48;102921.94;;;-3.73;81.63
71764;BME280;59602;52.142;5.408;2022-12-18T04:13:23;102912.34;;;-3.74;81.78
71764;BME280;59602;52.142;5.408;2022-12-18T04:15:50;102914.44;;;-3.77;81.55
71764;BME280;59602;52.142;5.408;2022-12-18T04:18:17;102904.03;;;-3.78;81.50
71764;BME280;59602;52.142;5.408;2022-12-18T04:20:43;102905.28;;;-3.81;81.25
71764;BME280;59602;52.142;5.408;2022-12-18T04:23:10;102906.34;;;-3.82;81.56
71764;BME280;59602;52.142;5.408;2022-12-18T04:25:37;102905.28;;;-3.81;81.56
71764;BME280;59602;52.142;5.408;2022-12-18T04:28:03;102901.38;;;-3.78;81.55
71764;BME280;59602;52.142;5.408;2022-12-18T04:30:30;102898.72;;;-3.78;81.31
71764;BME280;59602;52.142;5.408;2022-12-18T04:32:56;102898.94;;;-3.80;81.66
71764;BME280;59602;52.142;5.408;2022-12-18T04:35:23;102900.78;;;-3.80;81.64
71764;BME280;59602;52.142;5.408;2022-12-18T04:37:50;102901.38;;;-3.78;81.56
71764;BME280;59602;52.142;5.408;2022-12-18T04:40:16;102897.31;;;-3.81;81.48
71764;BME280;59602;52.142;5.408;2022-12-18T04:42:43;102906.34;;;-3.82;81.41
71764;BME280;59602;52.142;5.408;2022-12-18T04:45:10;102908.44;;;-3.84;81.32
71764;BME280;59602;52.142;5.408;2022-12-18T04:47:36;102911.78;;;-3.88;81.02
71764;BME280;59602;52.142;5.408;2022-12-18T04:50:03;102922.63;;;-3.90;81.33
71764;BME280;59602;52.142;5.408;2022-12-18T04:52:30;102926.31;;;-3.91;81.12
71764;BME280;59602;52.142;5.408;2022-12-18T04:54:57;102931.63;;;-3.91;81.25
71764;BME280;59602;52.142;5.408;2022-12-18T04:57:23;102929.22;;;-3.92;81.04
71764;BME280;59602;52.142;5.408;2022-12-18T04:59:51;102935.78;;;-3.95;81.08
71764;BME280;59602;52.142;5.408;2022-12-18T05:02:18;102936.59;;;-3.94;81.45
71764;BME280;59602;52.142;5.408;2022-12-18T05:04:45;102943.75;;;-3.95;81.51
71764;BME280;59602;52.142;5.408;2022-12-18T05:07:11;102950.47;;;-3.92;81.50
71764;BME280;59602;52.142;5.408;2022-12-18T05:09:38;102943.75;;;-3.95;81.02
71764;BME280;59602;52.142;5.408;2022-12-18T05:12:04;102950.91;;;-3.96;80.85
71764;BME280;59602;52.142;5.408;2022-12-18T05:14:31;102948.13;;;-4.01;80.97
71764;BME280;59602;52.142;5.408;2022-12-18T05:16:59;102947.53;;;-4.03;80.98
71764;BME280;59602;52.142;5.408;2022-12-18T05:19:26;102963.69;;;-4.04;81.00
71764;BME280;59602;52.142;5.408;2022-12-18T05:21:53;102953.06;;;-4.04;80.90
71764;BME280;59602;52.142;5.408;2022-12-18T05:24:19;102963.16;;;-4.06;81.22
71764;BME280;59602;52.142;5.408;2022-12-18T05:26:46;102972.72;;;-4.05;81.17
71764;BME280;59602;52.142;5.408;2022-12-18T05:29:12;102977.81;;;-4.04;81.27
71764;BME280;59602;52.142;5.408;2022-12-18T05:31:39;102975.97;;;-4.03;81.26
71764;BME280;59602;52.142;5.408;2022-12-18T05:34:08;102986.00;;;-4.05;81.01
71764;BME280;59602;52.142;5.408;2022-12-18T05:36:35;102978.63;;;-4.03;81.35
71764;BME280;59602;52.142;5.408;2022-12-18T05:39:02;102978.41;;;-4.02;81.07
71764;BME280;59602;52.142;5.408;2022-12-18T05:41:29;102973.91;;;-4.01;81.08
71764;BME280;59602;52.142;5.408;2022-12-18T05:43:56;102963.50;;;-4.03;81.12
71764;BME280;59602;52.142;5.408;2022-12-18T05:46:23;102948.00;;;-4.06;81.52
71764;BME280;59602;52.142;5.408;2022-12-18T05:48:50;102943.97;;;-4.08;81.08
71764;BME280;59602;52.142;5.408;2022-12-18T05:51:20;102946.63;;;-4.08;80.95
71764;BME280;59602;52.142;5.408;2022-12-18T05:53:48;102942.34;;;-4.09;81.08
71764;BME280;59602;52.142;5.408;2022-12-18T05:56:20;102944.78;;;-4.08;80.71
71764;BME280;59602;52.142;5.408;2022-12-18T05:58:47;102938.88;;;-4.10;80.84
71764;BME280;59602;52.142;5.408;2022-12-18T06:01:18;102940.25;;;-4.07;81.32
71764;BME280;59602;52.142;5.408;2022-12-18T06:03:45;102937.38;;;-4.06;81.32
71764;BME280;59602;52.142;5.408;2022-12-18T06:06:16;102933.09;;;-4.07;81.31
71764;BME280;59602;52.142;5.408;2022-12-18T06:08:44;102934.16;;;-4.08;81.44
71764;BME280;59602;52.142;5.408;2022-12-18T06:11:12;102929.63;;;-4.07;80.89
71764;BME280;59602;52.142;5.408;2022-12-18T06:13:39;102926.97;;;-4.07;81.41
71764;BME280;59602;52.142;5.408;2022-12-18T06:16:07;102926.75;;;-4.06;81.17
71764;BME280;59602;52.142;5.408;2022-12-18T06:18:34;102922.94;;;-4.10;80.84
71764;BME280;59602;52.142;5.408;2022-12-18T06:21:07;102914.84;;;-4.15;80.97
71764;BME280;59602;52.142;5.408;2022-12-18T06:23:34;102916.09;;;-4.18;81.23
71764;BME280;59602;52.142;5.408;2022-12-18T06:26:06;102918.41;;;-4.21;80.57
71764;BME280;59602;52.142;5.408;2022-12-18T06:28:33;102913.53;;;-4.24;80.79
71764;BME280;59602;52.142;5.408;2022-12-18T06:31:00;102905.03;;;-4.26;80.79
71764;BME280;59602;52.142;5.408;2022-12-18T06:33:27;102908.47;;;-4.26;80.78
71764;BME280;59602;52.142;5.408;2022-12-18T06:35:59;102903.97;;;-4.25;80.79
71764;BME280;59602;52.142;5.408;2022-12-18T06:38:27;102900.25;;;-4.24;80.85
71764;BME280;59602;52.142;5.408;2022-12-18T06:40:53;102897.28;;;-4.28;80.91
71764;BME280;59602;52.142;5.408;2022-12-18T06:43:20;102897.50;;;-4.29;80.73
71764;BME280;59602;52.142;5.408;2022-12-18T06:45:46;102902.00;;;-4.30;80.95
71764;BME280;59602;52.142;5.408;2022-12-18T06:48:19;102883.63;;;-4.31;80.98
71764;BME280;59602;52.142;5.408;2022-12-18T06:50:46;102883.88;;;-4.33;80.33
71764;BME280;59602;52.142;5.408;2022-12-18T06:53:13;102883.50;;;-4.36;80.31
71764;BME280;59602;52.142;5.408;2022-12-18T06:55:40;102884.78;;;-4.39;80.38
71764;BME280;59602;52.142;5.408;2022-12-18T06:58:07;102872.78;;;-4.42;80.34
71764;BME280;59602;52.142;5.408;2022-12-18T07:00:35;102875.06;;;-4.45;80.29
71764;BME280;59602;52.142;5.408;2022-12-18T07:03:02;102869.97;;;-4.47;80.63
71764;BME280;59602;52.142;5.408;2022-12-18T07:05:29;102868.59;;;-4.49;80.51
71764;BME280;59602;52.142;5.408;2022-12-18T07:07:55;102865.94;;;-4.49;80.51
71764;BME280;59602;52.142;5.408;2022-12-18T07:10:22;102861.66;;;-4.50;80.19
71764;BME280;59602;52.142;5.408;2022-12-18T07:12:48;102864.53;;;-4.52;80.37
71764;BME280;59602;52.142;5.408;2022-12-18T07:15:15;102862.94;;;-4.53;80.45
71764;BME280;59602;52.142;5.408;2022-12-18T07:17:42;102852.53;;;-4.54;80.14
71764;BME280;59602;52.142;5.408;2022-12-18T07:20:09;102851.28;;;-4.52;80.54
71764;BME280;59602;52.142;5.408;2022-12-18T07:22:35;102854.13;;;-4.53;80.85
71764;BME280;59602;52.142;5.408;2022-12-18T07:25:02;102857.84;;;-4.54;80.35
71764;BME280;59602;52.142;5.408;2022-12-18T07:27:29;102854.13;;;-4.53;80.37
71764;BME280;59602;52.142;5.408;2022-12-18T07:29:56;102859.22;;;-4.52;80.38
71764;BME280;59602;52.142;5.408;2022-12-18T07:32:23;102849.66;;;-4.53;79.83
71764;BME280;59602;52.142;5.408;2022-12-18T07:34:49;102842.94;;;-4.55;80.26
71764;BME280;59602;52.142;5.408;2022-12-18T07:37:20;102838.91;;;-4.58;80.18
71764;BME280;59602;52.142;5.408;2022-12-18T07:39:46;102828.53;;;-4.60;80.20
71764;BME280;59602;52.142;5.408;2022-12-18T07:42:15;102832.00;;;-4.59;79.91
71764;BME280;59602;52.142;5.408;2022-12-18T07:44:57;102838.69;;;-4.56;79.79
71764;BME280;59602;52.142;5.408;2022-12-18T07:47:24;102824.81;;;-4.59;79.59
71764;BME280;59602;52.142;5.408;2022-12-18T07:49:51;102819.75;;;-4.60;79.71
71764;BME280;59602;52.142;5.408;2022-12-18T07:52:17;102817.91;;;-4.60;79.89
71764;BME280;59602;52.142;5.408;2022-12-18T07:54:51;102810.16;;;-4.61;79.93
71764;BME280;59602;52.142;5.408;2022-12-18T07:57:17;102808.31;;;-4.61;79.87
71764;BME280;59602;52.142;5.408;2022-12-18T08:00:04;102808.09;;;-4.59;80.13
71764;BME280;59602;52.142;5.408;2022-12-18T08:02:31;102811.34;;;-4.57;79.85
71764;BME280;59602;52.142;5.408;2022-12-18T08:04:58;102802.91;;;-4.54;80.20
71764;BME280;59602;52.142;5.408;2022-12-18T08:07:31;102808.00;;;-4.52;80.50
71764;BME280;59602;52.142;5.408;2022-12-18T08:10:05;102795.88;;;-4.48;80.44
71764;BME280;59602;52.142;5.408;2022-12-18T08:12:32;102781.69;;;-4.42;80.40
71764;BME280;59602;52.142;5.408;2022-12-18T08:15:08;102779.38;;;-4.39;80.69
71764;BME280;59602;52.142;5.408;2022-12-18T08:17:35;102783.19;;;-4.34;80.93
71764;BME280;59602;52.142;5.408;2022-12-18T08:20:01;102796.00;;;-4.31;81.00
71764;BME280;59602;52.142;5.408;2022-12-18T08:22:29;102797.63;;;-4.30;80.85
71764;BME280;59602;52.142;5.408;2022-12-18T08:24:55;102793.94;;;-4.29;80.78
71764;BME280;59602;52.142;5.408;2022-12-18T08:27:22;102809.97;;;-4.24;81.12
71764;BME280;59602;52.142;5.408;2022-12-18T08:29:57;102816.91;;;-4.23;80.82
71764;BME280;59602;52.142;5.408;2022-12-18T08:32:26;102822.59;;;-4.20;81.07
71764;BME280;59602;52.142;5.408;2022-12-18T08:34:53;102821.31;;;-4.17;81.10
71764;BME280;59602;52.142;5.408;2022-12-18T08:37:19;102818.66;;;-4.17;81.34
71764;BME280;59602;52.142;5.408;2022-12-18T08:39:46;102815.53;;;-4.14;81.38
71764;BME280;59602;52.142;5.408;2022-12-18T08:42:12;102818.78;;;-4.12;81.34
71764;BME280;59602;52.142;5.408;2022-12-18T08:44:58;102808.94;;;-4.11;81.47
71764;BME280;59602;52.142;5.408;2022-12-18T08:47:24;102809.53;;;-4.09;81.29
71764;BME280;59602;52.142;5.408;2022-12-18T08:49:53;102811.97;;;-4.08;81.65
71764;BME280;59602;52.142;5.408;2022-12-18T08:52:21;102811.97;;;-4.08;81.60
71764;BME280;59602;52.142;5.408;2022-12-18T08:54:48;102812.53;;;-4.06;81.50
71764;BME280;59602;52.142;5.408;2022-12-18T08:57:15;102801.66;;;-4.04;81.67
71764;BME280;59602;52.142;5.408;2022-12-18T08:59:42;102801.44;;;-4.03;81.60
71764;BME280;59602;52.142;5.408;2022-12-18T09:02:10;102822.78;;;-3.98;81.67
71764;BME280;59602;52.142;5.408;2022-12-18T09:04:38;102829.84;;;-3.91;81.35
71764;BME280;59602;52.142;5.408;2022-12-18T09:07:06;102823.63;;;-3.85;81.76
71764;BME280;59602;52.142;5.408;2022-12-18T09:09:33;102820.25;;;-3.81;81.53
71764;BME280;59602;52.142;5.408;2022-12-18T09:12:00;102812.63;;;-3.77;81.45
71764;BME280;59602;52.142;5.408;2022-12-18T09:14:26;102815.41;;;-3.72;82.01
71764;BME280;59602;52.142;5.408;2022-12-18T09:16:53;102811.22;;;-3.68;82.02
71764;BME280;59602;52.142;5.408;2022-12-18T09:19:20;102803.13;;;-3.61;81.86
71764;BME280;59602;52.142;5.408;2022-12-18T09:21:46;102803.22;;;-3.56;82.44
71764;BME280;59602;52.142;5.408;2022-12-18T09:24:15;102805.53;;;-3.48;82.49
71764;BME280;59602;52.142;5.408;2022-12-18T09:26:42;102813.13;;;-3.40;82.40
71764;BME280;59602;52.142;5.408;2022-12-18T09:29:13;102806.06;;;-3.34;82.67
71764;BME280;59602;52.142;5.408;2022-12-18T09:31:41;102811.69;;;-3.30;82.83
71764;BME280;59602;52.142;5.408;2022-12-18T09:34:08;102801.19;;;-3.25;82.69
71764;BME280;59602;52.142;5.408;2022-12-18T09:36:34;102787.97;;;-3.20;83.20
71764;BME280;59602;52.142;5.408;2022-12-18T09:39:01;102790.72;;;-3.15;82.81
71764;BME280;59602;52.142;5.408;2022-12-18T09:44:21;102780.28;;;-3.05;83.22
71764;BME280;59602;52.142;5.408;2022-12-18T09:46:54;102778.50;;;-2.99;83.04
71764;BME280;59602;52.142;5.408;2022-12-18T09:49:25;102781.84;;;-2.92;83.46
71764;BME280;59602;52.142;5.408;2022-12-18T09:51:57;102777.38;;;-2.86;83.49
71764;BME280;59602;52.142;5.408;2022-12-18T09:54:35;102769.50;;;-2.81;83.51
71764;BME280;59602;52.142;5.408;2022-12-18T09:57:05;102761.84;;;-2.78;83.06
71764;BME280;59602;52.142;5.408;2022-12-18T09:59:38;102760.31;;;-2.74;83.25
71764;BME280;59602;52.142;5.408;2022-12-18T10:02:21;102764.09;;;-2.69;83.50
71764;BME280;59602;52.142;5.408;2022-12-18T10:05:06;102760.22;;;-2.62;83.68
71764;BME280;59602;52.142;5.408;2022-12-18T10:07:55;102763.06;;;-2.52;83.55
71764;BME280;59602;52.142;5.408;2022-12-18T10:13:06;102757.88;;;-2.41;83.94
71764;BME280;59602;52.142;5.408;2022-12-18T10:15:54;102753.44;;;-2.36;84.12
71764;BME280;59602;52.142;5.408;2022-12-18T10:18:34;102746.06;;;-2.28;83.94
71764;BME280;59602;52.142;5.408;2022-12-18T10:21:17;102746.97;;;-2.23;84.09
71764;BME280;59602;52.142;5.408;2022-12-18T10:23:57;102752.91;;;-2.16;84.14
71764;BME280;59602;52.142;5.408;2022-12-18T10:26:27;102757.28;;;-2.10;84.32
71764;BME280;59602;52.142;5.408;2022-12-18T10:28:56;102755.47;;;-2.04;84.27
71764;BME280;59602;52.142;5.408;2022-12-18T10:31:30;102754.50;;;-1.98;84.55
71764;BME280;59602;52.142;5.408;2022-12-18T10:33:57;102749.22;;;-1.93;84.53
71764;BME280;59602;52.142;5.408;2022-12-18T10:36:24;102726.13;;;-1.87;84.42
71764;BME280;59602;52.142;5.408;2022-12-18T10:38:51;102721.06;;;-1.83;84.72
71764;BME280;59602;52.142;5.408;2022-12-18T10:43:47;102741.75;;;-1.74;84.73
71764;BME280;59602;52.142;5.408;2022-12-18T10:46:16;102740.19;;;-1.70;84.94
71764;BME280;59602;52.142;5.408;2022-12-18T10:51:26;102720.28;;;-1.62;84.50
71764;BME280;59602;52.142;5.408;2022-12-18T10:53:59;102718.72;;;-1.58;84.46
71764;BME280;59602;52.142;5.408;2022-12-18T10:56:29;102722.22;;;-1.52;85.02
71764;BME280;59602;52.142;5.408;2022-12-18T10:59:00;102709.75;;;-1.47;84.37
71764;BME280;59602;52.142;5.408;2022-12-18T11:01:28;102708.22;;;-1.42;84.38
71764;BME280;59602;52.142;5.408;2022-12-18T11:06:28;102694.16;;;-1.33;84.22
71764;BME280;59602;52.142;5.408;2022-12-18T11:09:05;102694.19;;;-1.28;84.08
71764;BME280;59602;52.142;5.408;2022-12-18T11:11:40;102693.44;;;-1.23;83.68
71764;BME280;59602;52.142;5.408;2022-12-18T11:14:16;102683.06;;;-1.19;83.76
71764;BME280;59602;52.142;5.408;2022-12-18T11:16:47;102676.97;;;-1.15;83.45
71764;BME280;59602;52.142;5.408;2022-12-18T11:19:36;102682.63;;;-1.11;82.73
71764;BME280;59602;52.142;5.408;2022-12-18T11:22:19;102673.28;;;-1.09;82.58
71764;BME280;59602;52.142;5.408;2022-12-18T11:24:56;102661.84;;;-1.04;82.76
71764;BME280;59602;52.142;5.408;2022-12-18T11:27:50;102653.06;;;-0.99;82.78
71764;BME280;59602;52.142;5.408;2022-12-18T11:30:46;102653.66;;;-0.92;82.62
71764;BME280;59602;52.142;5.408;2022-12-18T11:33:19;102659.03;;;-0.87;82.37
71764;BME280;59602;52.142;5.408;2022-12-18T11:35:59;102662.25;;;-0.85;82.24
71764;BME280;59602;52.142;5.408;2022-12-18T11:38:32;102668.69;;;-0.81;82.04
71764;BME280;59602;52.142;5.408;2022-12-18T11:41:24;102669.47;;;-0.80;81.72
71764;BME280;59602;52.142;5.408;2022-12-18T11:44:18;102665.25;;;-0.76;82.15
71764;BME280;59602;52.142;5.408;2022-12-18T11:46:50;102669.81;;;-0.72;82.29
71764;BME280;59602;52.142;5.408;2022-12-18T11:49:29;102660.50;;;-0.69;82.63
71764;BME280;59602;52.142;5.408;2022-12-18T11:52:13;102657.06;;;-0.65;82.57
71764;BME280;59602;52.142;5.408;2022-12-18T11:54:42;102653.84;;;-0.61;81.92
71764;BME280;59602;52.142;5.408;2022-12-18T12:02:47;102630.13;;;-0.58;81.83
71764;BME280;59602;52.142;5.408;2022-12-18T12:05:29;102632.50;;;-0.56;81.45
71764;BME280;59602;52.142;5.408;2022-12-18T12:21:39;102603.19;;;-0.41;81.27
71764;BME280;59602;52.142;5.408;2022-12-18T12:24:33;102588.78;;;-0.40;81.08
71764;BME280;59602;52.142;5.408;2022-12-18T12:27:52;102587.19;;;-0.36;81.22
71764;BME280;59602;52.142;5.408;2022-12-18T12:30:56;102591.22;;;-0.33;80.57
71764;BME280;59602;52.142;5.408;2022-12-18T12:33:50;102580.53;;;-0.28;80.56
71764;BME280;59602;52.142;5.408;2022-12-18T12:47:14;102559.16;;;-0.18;79.44
71764;BME280;59602;52.142;5.408;2022-12-18T12:49:43;102560.00;;;-0.17;79.88
71764;BME280;59602;52.142;5.408;2022-12-18T14:36:36;102439.44;;;0.15;76.65
71764;BME280;59602;52.142;5.408;2022-12-18T15:05:36;102412.69;;;0.10;76.65
71764;BME280;59602;52.142;5.408;2022-12-18T15:41:53;102408.16;;;0.10;76.75
71764;BME280;59602;52.142;5.408;2022-12-18T15:44:54;102410.81;;;0.10;76.35
71764;BME280;59602;52.142;5.408;2022-12-18T15:47:22;102410.03;;;0.10;76.49
71764;BME280;59602;52.142;5.408;2022-12-18T15:49:48;102398.25;;;0.06;76.30
71764;BME280;59602;52.142;5.408;2022-12-18T15:52:15;102393.72;;;0.06;76.38
71764;BME280;59602;52.142;5.408;2022-12-18T15:54:52;102391.81;;;0.07;76.96
71764;BME280;59602;52.142;5.408;2022-12-18T15:58:23;102382.22;;;0.06;76.30
71764;BME280;59602;52.142;5.408;2022-12-18T16:01:18;102372.59;;;0.05;76.28
71764;BME280;59602;52.142;5.408;2022-12-18T16:05:17;102369.94;;;0.05;76.52
71764;BME280;59602;52.142;5.408;2022-12-18T16:08:31;102375.25;;;0.10;76.50
71764;BME280;59602;52.142;5.408;2022-12-18T16:16:11;102360.28;;;0.04;76.31
71764;BME280;59602;52.142;5.408;2022-12-18T16:22:30;102333.28;;;0.05;76.77
71764;BME280;59602;52.142;5.408;2022-12-18T16:28:15;102336.75;;;0.06;75.75
71764;BME280;59602;52.142;5.408;2022-12-18T16:31:28;102334.34;;;0.04;75.76
71764;BME280;59602;52.142;5.408;2022-12-18T16:41:27;102309.47;;;0.09;75.89
71764;BME280;59602;52.142;5.408;2022-12-18T16:48:15;102300.91;;;0.12;75.12
71764;BME280;59602;52.142;5.408;2022-12-18T16:51:40;102300.63;;;0.13;75.40
71764;BME280;59602;52.142;5.408;2022-12-18T16:54:37;102304.91;;;0.14;75.08
71764;BME280;59602;52.142;5.408;2022-12-18T17:00:56;102292.34;;;0.15;75.03
71764;BME280;59602;52.142;5.408;2022-12-18T17:04:30;102295.28;;;0.18;75.48
71764;BME280;59602;52.142;5.408;2022-12-18T17:07:16;102298.50;;;0.20;74.96
71764;BME280;59602;52.142;5.408;2022-12-18T17:10:34;102293.94;;;0.21;74.49
71764;BME280;59602;52.142;5.408;2022-12-18T17:13:44;102296.63;;;0.21;74.35
71764;BME280;59602;52.142;5.408;2022-12-18T17:17:08;102302.75;;;0.22;74.62
71764;BME280;59602;52.142;5.408;2022-12-18T17:20:22;102293.69;;;0.23;74.24
71764;BME280;59602;52.142;5.408;2022-12-18T17:23:28;102295.25;;;0.24;74.46
71764;BME280;59602;52.142;5.408;2022-12-18T17:26:53;102290.72;;;0.24;74.23
71764;BME280;59602;52.142;5.408;2022-12-18T17:29:50;102292.31;;;0.25;74.40
71764;BME280;59602;52.142;5.408;2022-12-18T17:32:58;102295.00;;;0.25;74.48
71764;BME280;59602;52.142;5.408;2022-12-18T17:36:15;102288.84;;;0.25;73.55